createdAt,value
2023-03-10T00:02:10.561Z,19.60
2023-03-10T00:05:38.808Z,25.98
2023-03-10T00:12:34.622Z,17.85
2023-03-10T00:19:32.109Z,16.20
2023-03-10T00:23:00.576Z,12.50
2023-03-10T00:26:29.668Z,12.15
2023-03-10T00:29:57.786Z,16.98
2023-03-10T00:33:28.086Z,12.43
2023-03-10T00:37:05.270Z,17.30
2023-03-10T00:40:33.602Z,10.82
2023-03-10T00:44:02.002Z,12.85
2023-03-10T00:47:31.757Z,10.48
2023-03-10T00:50:59.948Z,13.48
2023-03-10T00:54:28.257Z,11.55
2023-03-10T00:57:56.404Z,11.48
2023-03-10T01:01:26.021Z,11.77
2023-03-10T01:04:56.854Z,14.05
2023-03-10T01:08:24.893Z,15.50
2023-03-10T01:11:52.664Z,18.17
2023-03-10T01:15:20.798Z,11.40
2023-03-10T01:18:48.610Z,15.05
2023-03-10T01:25:45.956Z,9.90
2023-03-10T01:32:42.097Z,10.13
2023-03-10T01:39:40.405Z,8.60
2023-03-10T01:43:28.603Z,8.15
2023-03-10T01:47:26.650Z,5.18
2023-03-10T01:50:55.921Z,4.78
2023-03-10T01:54:28.048Z,5.78
2023-03-10T01:57:57.953Z,7.13
2023-03-10T02:01:26.944Z,6.85
2023-03-10T02:04:58.768Z,9.65
2023-03-10T02:08:36.114Z,10.65
2023-03-10T02:12:06.945Z,6.07
2023-03-10T02:15:35.276Z,7.60
2023-03-10T02:19:05.816Z,7.43
2023-03-10T02:22:43.471Z,6.47
2023-03-10T02:26:27.846Z,5.90
2023-03-10T02:30:01.848Z,6.90
2023-03-10T02:33:37.177Z,7.10
2023-03-10T02:37:06.314Z,7.63
2023-03-10T02:40:36.897Z,5.68
2023-03-10T02:44:21.245Z,5.93
2023-03-10T02:47:49.078Z,5.82
2023-03-10T02:51:21.779Z,7.32
2023-03-10T02:54:49.849Z,7.35
2023-03-10T02:58:18.107Z,11.77
2023-03-10T03:01:48.577Z,7.63
2023-03-10T03:05:19.482Z,9.18
2023-03-10T03:08:48.769Z,13.63
2023-03-10T03:12:19.150Z,11.68
2023-03-10T03:15:49.225Z,10.05
2023-03-10T03:19:17.960Z,7.47
2023-03-10T03:22:46.636Z,13.25
2023-03-10T03:26:17.633Z,9.25
2023-03-10T03:29:45.574Z,8.10
2023-03-10T03:34:21.070Z,7.00
2023-03-10T03:37:53.444Z,8.55
2023-03-10T03:41:22.453Z,5.78
2023-03-10T03:44:50.573Z,11.02
2023-03-10T03:48:21.276Z,10.10
2023-03-10T03:51:53.850Z,9.38
2023-03-10T03:55:24.302Z,7.45
2023-03-10T03:58:53.990Z,6.53
2023-03-10T04:05:50.268Z,10.50
2023-03-10T04:09:21.585Z,7.47
2023-03-10T04:12:49.681Z,9.23
2023-03-10T04:16:17.714Z,7.53
2023-03-10T04:19:54.055Z,9.63
2023-03-10T04:23:30.532Z,9.00
2023-03-10T04:26:59.394Z,14.93
2023-03-10T04:30:29.791Z,11.55
2023-03-10T04:34:01.088Z,13.07
2023-03-10T04:37:29.526Z,15.07
2023-03-10T04:40:59.853Z,12.05
2023-03-10T04:44:32.649Z,13.80
2023-03-10T04:48:04.389Z,15.93
2023-03-10T04:51:32.721Z,18.27
2023-03-10T04:55:02.587Z,13.20
2023-03-10T04:58:30.725Z,11.38
2023-03-10T05:01:59.159Z,8.95
2023-03-10T05:05:27.231Z,11.80
2023-03-10T05:08:55.775Z,10.57
2023-03-10T05:12:26.560Z,14.10
2023-03-10T05:15:54.833Z,13.00
2023-03-10T05:19:22.703Z,10.93
2023-03-10T05:22:51.103Z,12.82
2023-03-10T05:26:20.482Z,9.88
2023-03-10T05:29:50.433Z,12.52
2023-03-10T05:33:22.416Z,7.70
2023-03-10T05:36:52.185Z,15.95
2023-03-10T05:40:20.971Z,13.27
2023-03-10T05:43:50.805Z,15.48
2023-03-10T05:47:19.950Z,13.32
2023-03-10T05:50:57.601Z,12.32
2023-03-10T05:54:25.919Z,10.43
2023-03-10T05:57:54.580Z,11.52
2023-03-10T06:01:24.121Z,15.73
2023-03-10T06:04:52.276Z,22.05
2023-03-10T06:08:20.048Z,18.25
2023-03-10T06:11:48.051Z,11.18
2023-03-10T06:15:15.979Z,12.57
2023-03-10T06:18:45.805Z,19.30
2023-03-10T06:22:15.195Z,20.40
2023-03-10T06:25:43.178Z,10.13
2023-03-10T06:29:11.910Z,11.73
2023-03-10T06:32:39.942Z,13.70
2023-03-10T06:36:11.718Z,11.40
2023-03-10T06:39:40.593Z,11.88
2023-03-10T06:43:08.946Z,12.80
2023-03-10T06:46:37.006Z,13.38
2023-03-10T06:50:06.084Z,9.95
2023-03-10T06:53:35.829Z,11.38
2023-03-10T06:57:05.739Z,16.90
2023-03-10T07:00:33.851Z,18.38
2023-03-10T07:04:02.157Z,17.25
2023-03-10T07:07:30.314Z,9.50
2023-03-10T07:10:59.441Z,13.02
2023-03-10T07:14:27.569Z,11.25
2023-03-10T07:17:56.482Z,10.48
2023-03-10T07:21:24.967Z,13.90
2023-03-10T07:24:55.282Z,13.13
2023-03-10T07:28:24.718Z,13.85
2023-03-10T07:31:52.969Z,16.17
2023-03-10T07:38:48.828Z,11.80
2023-03-10T07:45:46.175Z,22.77
2023-03-10T07:49:13.914Z,10.55
2023-03-10T07:56:11.307Z,11.88
2023-03-10T07:59:39.578Z,13.45
2023-03-10T08:06:40.260Z,9.48
2023-03-10T08:10:09.002Z,10.57
2023-03-10T08:13:37.802Z,12.23
2023-03-10T08:17:06.606Z,14.73
2023-03-10T08:20:36.824Z,8.77
2023-03-10T08:24:05.253Z,10.85
2023-03-10T08:27:33.664Z,16.52
2023-03-10T08:31:07.470Z,14.75
2023-03-10T08:34:37.317Z,14.57
2023-03-10T08:38:05.816Z,12.15
2023-03-10T08:41:36.395Z,9.80
2023-03-10T08:45:08.480Z,13.70
2023-03-10T08:48:36.925Z,11.55
2023-03-10T08:52:09.300Z,12.27
2023-03-10T08:55:37.314Z,9.43
2023-03-10T08:59:05.208Z,12.48
2023-03-10T09:02:34.894Z,17.40
2023-03-10T09:06:02.743Z,11.82
2023-03-10T09:09:32.454Z,12.73
2023-03-10T09:13:12.914Z,10.35
2023-03-10T09:16:42.286Z,14.52
2023-03-10T09:20:11.138Z,10.63
2023-03-10T09:23:43.322Z,12.02
2023-03-10T09:27:11.390Z,13.50
2023-03-10T09:30:41.106Z,15.65
2023-03-10T09:34:09.792Z,16.00
2023-03-10T09:37:38.382Z,14.25
2023-03-10T09:41:15.054Z,14.00
2023-03-10T09:44:51.006Z,11.10
2023-03-10T09:48:34.001Z,16.30
2023-03-10T09:52:09.194Z,12.68
2023-03-10T09:55:47.925Z,14.30
2023-03-10T09:59:24.596Z,10.95
2023-03-10T10:02:59.569Z,9.15
2023-03-10T10:06:34.526Z,12.13
2023-03-10T10:10:07.040Z,12.45
2023-03-10T10:13:36.657Z,11.15
2023-03-10T10:17:15.138Z,7.78
2023-03-10T10:20:17.265Z,10.23
2023-03-10T10:23:46.142Z,11.13
2023-03-10T10:27:18.729Z,11.50
2023-03-10T10:30:48.796Z,9.85
2023-03-10T10:33:18.429Z,11.20
2023-03-10T10:36:01.013Z,7.75
2023-03-10T10:38:32.672Z,10.10
2023-03-10T10:42:15.140Z,8.75
2023-03-10T10:45:45.338Z,8.48
2023-03-10T10:49:33.861Z,9.23
2023-03-10T10:53:17.715Z,10.38
2023-03-10T10:56:53.181Z,8.45
2023-03-10T11:00:26.769Z,8.35
2023-03-10T11:04:05.748Z,7.22
2023-03-10T11:07:33.750Z,8.52
2023-03-10T11:11:04.348Z,10.63
2023-03-10T11:14:42.237Z,8.55
2023-03-10T11:18:18.913Z,9.35
2023-03-10T11:21:52.558Z,12.93
2023-03-10T11:25:27.160Z,10.40
2023-03-10T11:28:58.829Z,7.38
2023-03-10T11:32:39.763Z,9.40
2023-03-10T11:36:20.243Z,10.73
2023-03-10T11:39:53.454Z,7.38
2023-03-10T11:43:33.699Z,6.45
2023-03-10T11:47:07.582Z,14.57
2023-03-10T11:50:43.513Z,10.65
2023-03-10T11:54:16.131Z,20.83
2023-03-10T11:57:46.938Z,14.05
2023-03-10T12:01:21.529Z,9.80
2023-03-10T12:04:58.877Z,12.38
2023-03-10T12:08:32.561Z,10.05
2023-03-10T12:12:02.374Z,6.15
2023-03-10T12:15:36.962Z,8.32
2023-03-10T12:19:06.365Z,7.32
2023-03-10T12:22:40.190Z,8.93
2023-03-10T12:26:42.327Z,7.63
2023-03-10T12:30:42.106Z,6.82
2023-03-10T12:34:33.510Z,7.45
2023-03-10T12:38:24.629Z,6.88
2023-03-10T12:41:54.488Z,7.63
2023-03-10T12:45:32.882Z,7.95
2023-03-10T12:49:07.754Z,8.00
2023-03-10T12:52:48.918Z,7.18
2023-03-10T12:56:21.991Z,6.30
2023-03-10T12:59:58.410Z,6.30
2023-03-10T13:03:35.627Z,6.93
2023-03-10T13:07:07.876Z,6.30
2023-03-10T13:10:39.178Z,10.05
2023-03-10T13:14:12.310Z,7.55
2023-03-10T13:17:41.721Z,7.05
2023-03-10T13:21:24.911Z,11.48
2023-03-10T13:24:58.074Z,11.82
2023-03-10T13:28:31.390Z,20.65
2023-03-10T13:32:19.786Z,12.38
2023-03-10T13:35:48.291Z,9.20
2023-03-10T13:39:17.739Z,10.98
2023-03-10T13:42:48.462Z,20.10
2023-03-10T13:46:25.982Z,11.15
2023-03-10T13:49:56.464Z,9.82
2023-03-10T13:53:26.551Z,7.45
2023-03-10T13:56:56.299Z,8.32
2023-03-10T14:00:27.504Z,5.15
2023-03-10T14:03:57.398Z,7.03
2023-03-10T14:07:27.659Z,9.70
2023-03-10T14:11:22.917Z,12.98
2023-03-10T14:14:52.113Z,9.82
2023-03-10T14:18:35.640Z,6.60
2023-03-10T14:22:26.058Z,10.07
2023-03-10T14:25:54.847Z,8.07
2023-03-10T14:29:25.143Z,6.10
2023-03-10T14:32:55.411Z,7.68
2023-03-10T14:36:25.132Z,6.03
2023-03-10T14:39:53.300Z,5.88
2023-03-10T14:43:30.304Z,28.17
2023-03-10T14:46:59.949Z,12.02
2023-03-10T14:50:29.993Z,8.70
2023-03-10T14:53:58.276Z,7.90
2023-03-10T14:57:28.622Z,7.95
2023-03-10T15:00:56.800Z,7.35
2023-03-10T15:04:24.978Z,12.43
2023-03-10T15:07:54.404Z,12.63
2023-03-10T15:11:36.096Z,12.70
2023-03-10T15:15:06.200Z,13.70
2023-03-10T15:18:34.475Z,16.90
2023-03-10T15:22:04.187Z,18.17
2023-03-10T15:25:32.178Z,23.60
2023-03-10T15:29:00.435Z,38.42
2023-03-10T15:32:28.401Z,16.23
2023-03-10T15:35:56.621Z,16.50
2023-03-10T15:43:01.511Z,16.67
2023-03-10T15:46:30.727Z,11.82
2023-03-10T15:49:59.418Z,17.88
2023-03-10T15:53:27.521Z,20.17
2023-03-10T15:56:57.071Z,36.85
2023-03-10T16:00:27.470Z,87.75
2023-03-10T16:03:55.810Z,61.90
2023-03-10T16:07:25.299Z,23.20
2023-03-10T16:10:54.921Z,13.40
2023-03-10T16:14:25.658Z,15.95
2023-03-10T16:17:54.175Z,16.50
2023-03-10T16:21:22.736Z,20.90
2023-03-10T16:24:51.398Z,17.90
2023-03-10T16:28:19.292Z,12.93
2023-03-10T16:35:18.458Z,13.73
2023-03-10T16:38:47.050Z,18.42
2023-03-10T16:42:14.932Z,19.60
2023-03-10T16:45:45.341Z,19.17
2023-03-10T16:49:15.966Z,17.92
2023-03-10T16:52:45.625Z,20.25
2023-03-10T16:56:14.511Z,13.98
2023-03-10T16:59:45.073Z,27.33
2023-03-10T17:03:16.283Z,34.88
2023-03-10T17:06:44.847Z,19.95
2023-03-10T17:10:14.067Z,22.80
2023-03-10T17:13:46.387Z,17.10
2023-03-10T17:17:15.094Z,20.20
2023-03-10T17:20:45.000Z,27.50
2023-03-10T17:24:13.657Z,36.55
2023-03-10T17:27:43.296Z,29.80
2023-03-10T17:31:13.025Z,21.70
2023-03-10T17:34:41.716Z,34.83
2023-03-10T17:41:40.833Z,30.83
2023-03-10T17:45:09.269Z,22.23
2023-03-10T17:48:38.011Z,17.70
2023-03-10T17:52:07.671Z,16.55
2023-03-10T17:55:37.720Z,15.18
2023-03-10T17:59:06.371Z,12.50
2023-03-10T18:02:34.764Z,19.60
2023-03-10T18:09:31.288Z,24.35
2023-03-10T18:13:01.289Z,26.77
2023-03-10T18:16:30.320Z,58.45
2023-03-10T18:19:59.197Z,52.95
2023-03-10T18:23:27.510Z,54.58
2023-03-10T18:26:56.281Z,58.80
2023-03-10T18:30:26.157Z,42.40
2023-03-10T18:33:54.077Z,19.08
2023-03-10T18:37:23.026Z,55.53
2023-03-10T18:40:57.651Z,88.32
2023-03-10T18:44:27.178Z,51.42
2023-03-10T18:47:55.454Z,39.35
2023-03-10T18:54:53.567Z,25.65
2023-03-10T18:58:22.379Z,25.02
2023-03-10T19:01:52.080Z,34.65
2023-03-10T19:05:20.157Z,34.88
2023-03-10T19:08:48.495Z,33.05
2023-03-10T19:15:45.348Z,23.92
2023-03-10T19:19:14.980Z,20.83
2023-03-10T19:22:43.393Z,18.83
2023-03-10T19:26:13.500Z,33.13
2023-03-10T19:29:42.024Z,29.38
2023-03-10T19:33:11.052Z,40.70
2023-03-10T19:36:40.666Z,36.72
2023-03-10T19:40:09.638Z,29.13
2023-03-10T19:43:47.497Z,23.33
2023-03-10T19:47:17.637Z,20.35
2023-03-10T19:50:47.057Z,23.67
2023-03-10T19:54:15.281Z,25.80
2023-03-10T19:57:43.264Z,23.15
2023-03-10T20:01:13.784Z,19.00
2023-03-10T20:04:41.730Z,24.17
2023-03-10T20:08:11.602Z,18.80
2023-03-10T20:11:39.984Z,24.92
2023-03-10T20:15:09.157Z,148.52
2023-03-10T20:18:38.915Z,87.95
2023-03-10T20:22:09.964Z,53.70
2023-03-10T20:25:39.405Z,29.40
2023-03-10T20:29:07.787Z,24.65
2023-03-10T20:32:36.463Z,18.05
2023-03-10T20:36:08.654Z,26.38
2023-03-10T20:39:36.657Z,20.80
2023-03-10T20:43:08.534Z,21.73
2023-03-10T20:46:37.101Z,18.52
2023-03-10T20:50:06.578Z,17.60
2023-03-10T20:53:38.417Z,17.15
2023-03-10T20:57:09.764Z,17.30
2023-03-10T21:00:38.876Z,16.70
2023-03-10T21:04:07.689Z,17.75
2023-03-10T21:07:35.694Z,16.63
2023-03-10T21:11:04.357Z,20.48
2023-03-10T21:14:35.605Z,19.85
2023-03-10T21:18:04.436Z,22.02
2023-03-10T21:21:34.552Z,18.42
2023-03-10T21:25:03.692Z,25.60
2023-03-10T21:28:31.608Z,21.33
2023-03-10T21:32:01.049Z,43.35
2023-03-10T21:35:30.605Z,34.88
2023-03-10T21:38:58.855Z,25.95
2023-03-10T21:42:28.789Z,21.45
2023-03-10T21:45:57.154Z,25.00
2023-03-10T21:49:26.425Z,26.05
2023-03-10T21:52:54.856Z,17.42
2023-03-10T21:59:51.483Z,28.52
2023-03-10T22:03:23.562Z,27.23
2023-03-10T22:06:53.176Z,37.75
2023-03-10T22:10:21.035Z,34.70
2023-03-10T22:13:49.438Z,37.03
2023-03-10T22:17:17.897Z,37.22
2023-03-10T22:20:48.921Z,29.58
2023-03-10T22:24:18.290Z,46.92
2023-03-10T22:27:49.590Z,43.17
2023-03-10T22:31:18.367Z,31.27
2023-03-10T22:34:47.082Z,30.13
2023-03-10T22:38:14.787Z,37.65
2023-03-10T22:48:45.450Z,26.75
2023-03-10T22:52:15.017Z,17.75
2023-03-10T22:55:43.766Z,24.25
2023-03-10T22:59:13.209Z,20.70
2023-03-10T23:02:41.210Z,18.00
2023-03-10T23:06:09.694Z,21.90
2023-03-10T23:09:37.543Z,18.35
2023-03-10T23:13:07.689Z,30.45
2023-03-10T23:16:38.514Z,31.65
2023-03-10T23:20:08.865Z,25.40
2023-03-10T23:23:36.801Z,24.92
2023-03-10T23:27:05.092Z,24.83
2023-03-10T23:34:02.421Z,18.67
2023-03-10T23:37:30.672Z,21.00
2023-03-10T23:40:58.421Z,20.05
2023-03-10T23:47:55.946Z,19.17
2023-03-10T23:51:29.006Z,20.90
2023-03-10T23:54:57.357Z,23.05
2023-03-10T23:58:25.790Z,20.45
